createdAt,value
2023-02-08T00:02:16.683Z,-0.47
2023-02-08T00:04:44.312Z,-0.48
2023-02-08T00:07:11.844Z,-0.49
2023-02-08T00:09:39.424Z,-0.48
2023-02-08T00:12:07.259Z,-0.50
2023-02-08T00:14:34.774Z,-0.53
2023-02-08T00:17:03.622Z,-0.55
2023-02-08T00:19:31.145Z,-0.57
2023-02-08T00:21:58.700Z,-0.66
2023-02-08T00:24:26.202Z,-0.74
2023-02-08T00:26:54.042Z,-0.80
2023-02-08T00:29:21.532Z,-0.87
2023-02-08T00:31:49.078Z,-0.93
2023-02-08T00:34:17.938Z,-1.05
2023-02-08T00:36:45.471Z,-1.17
2023-02-08T00:39:13.241Z,-1.30
2023-02-08T00:41:40.773Z,-1.42
2023-02-08T00:44:17.865Z,-1.57
2023-02-08T00:46:46.294Z,-1.72
2023-02-08T00:49:13.936Z,-1.81
2023-02-08T00:51:52.176Z,-1.82
2023-02-08T00:54:45.320Z,-1.84
2023-02-08T00:57:13.156Z,-1.90
2023-02-08T00:59:56.484Z,-1.99
2023-02-08T01:02:24.265Z,-2.09
2023-02-08T01:05:00.372Z,-2.15
2023-02-08T01:07:32.805Z,-2.14
2023-02-08T01:10:13.899Z,-2.11
2023-02-08T01:12:44.788Z,-2.05
2023-02-08T01:15:25.076Z,-2.02
2023-02-08T01:18:03.903Z,-1.99
2023-02-08T01:20:36.869Z,-2.07
2023-02-08T01:23:51.717Z,-2.08
2023-02-08T01:26:37.277Z,-2.05
2023-02-08T01:29:13.184Z,-2.07
2023-02-08T01:31:54.390Z,-2.10
2023-02-08T01:34:29.933Z,-2.14
2023-02-08T01:39:56.896Z,-2.23
2023-02-08T01:42:45.785Z,-2.25
2023-02-08T01:45:34.717Z,-2.25
2023-02-08T01:48:15.204Z,-2.25
2023-02-08T01:50:58.915Z,-2.21
2023-02-08T01:53:45.140Z,-2.25
2023-02-08T01:56:36.727Z,-2.24
2023-02-08T01:59:25.505Z,-2.32
2023-02-08T02:02:05.977Z,-2.38
2023-02-08T02:04:42.075Z,-2.47
2023-02-08T02:07:18.236Z,-2.53
2023-02-08T02:09:59.720Z,-2.61
2023-02-08T02:12:41.320Z,-2.61
2023-02-08T02:15:17.138Z,-2.51
2023-02-08T02:17:53.985Z,-2.42
2023-02-08T02:20:32.438Z,-2.35
2023-02-08T02:23:43.163Z,-2.31
2023-02-08T02:26:41.726Z,-2.31
2023-02-08T02:29:53.106Z,-2.20
2023-02-08T02:33:17.647Z,-2.20
2023-02-08T02:36:09.491Z,-2.25
2023-02-08T02:39:13.194Z,-2.21
2023-02-08T02:42:14.938Z,-2.24
2023-02-08T02:44:57.697Z,-2.29
2023-02-08T02:47:48.988Z,-2.28
2023-02-08T02:50:28.917Z,-2.24
2023-02-08T02:53:16.327Z,-2.16
2023-02-08T02:55:57.262Z,-2.17
2023-02-08T02:58:40.960Z,-2.28
2023-02-08T03:01:37.496Z,-2.38
2023-02-08T03:04:22.815Z,-2.50
2023-02-08T03:07:11.437Z,-2.55
2023-02-08T03:09:57.163Z,-2.58
2023-02-08T03:12:51.212Z,-2.59
2023-02-08T03:15:40.550Z,-2.58
2023-02-08T03:18:33.242Z,-2.56
2023-02-08T03:21:20.433Z,-2.52
2023-02-08T03:24:05.017Z,-2.55
2023-02-08T03:26:50.779Z,-2.53
2023-02-08T03:29:40.223Z,-2.57
2023-02-08T03:32:25.137Z,-2.60
2023-02-08T03:35:13.130Z,-2.65
2023-02-08T03:37:51.344Z,-2.68
2023-02-08T03:40:33.323Z,-2.65
2023-02-08T03:43:22.495Z,-2.65
2023-02-08T03:46:15.309Z,-2.63
2023-02-08T03:49:01.573Z,-2.60
2023-02-08T03:51:41.088Z,-2.57
2023-02-08T03:54:16.755Z,-2.55
2023-02-08T03:56:56.555Z,-2.55
2023-02-08T03:59:41.641Z,-2.54
2023-02-08T04:02:18.283Z,-2.58
2023-02-08T04:05:01.231Z,-2.60
2023-02-08T04:07:34.070Z,-2.52
2023-02-08T04:10:17.785Z,-2.50
2023-02-08T04:12:51.672Z,-2.55
2023-02-08T04:15:37.257Z,-2.52
2023-02-08T04:18:23.636Z,-2.44
2023-02-08T04:21:05.299Z,-2.42
2023-02-08T04:23:37.432Z,-2.34
2023-02-08T04:26:17.199Z,-2.28
2023-02-08T04:29:02.456Z,-2.25
2023-02-08T04:31:42.579Z,-2.18
2023-02-08T04:34:22.536Z,-2.19
2023-02-08T04:36:57.476Z,-2.17
2023-02-08T04:39:33.887Z,-2.13
2023-02-08T04:42:08.075Z,-2.13
2023-02-08T04:44:55.929Z,-2.18
2023-02-08T04:47:42.398Z,-2.15
2023-02-08T04:50:22.376Z,-2.10
2023-02-08T04:53:25.132Z,-2.15
2023-02-08T04:56:22.314Z,-2.13
2023-02-08T04:58:55.517Z,-2.17
2023-02-08T05:01:30.632Z,-2.20
2023-02-08T05:04:32.549Z,-2.16
2023-02-08T05:07:03.928Z,-2.17
2023-02-08T05:09:48.923Z,-2.22
2023-02-08T05:12:36.955Z,-2.27
2023-02-08T05:15:20.123Z,-2.29
2023-02-08T05:18:08.806Z,-2.37
2023-02-08T05:20:51.383Z,-2.49
2023-02-08T05:23:45.748Z,-2.53
2023-02-08T05:29:21.941Z,-2.63
2023-02-08T05:32:00.669Z,-2.62
2023-02-08T05:34:34.869Z,-2.63
2023-02-08T05:37:21.593Z,-2.68
2023-02-08T05:40:02.640Z,-2.77
2023-02-08T05:45:45.721Z,-2.91
2023-02-08T05:48:18.513Z,-2.96
2023-02-08T05:51:01.363Z,-3.01
2023-02-08T05:53:33.984Z,-3.06
2023-02-08T05:56:04.882Z,-3.03
2023-02-08T05:58:38.421Z,-3.01
2023-02-08T06:01:19.224Z,-2.99
2023-02-08T06:03:58.010Z,-2.95
2023-02-08T06:06:29.114Z,-2.94
2023-02-08T06:11:55.803Z,-2.88
2023-02-08T06:14:35.605Z,-2.84
2023-02-08T06:17:03.250Z,-2.83
2023-02-08T06:19:30.818Z,-2.81
2023-02-08T06:21:58.514Z,-2.79
2023-02-08T06:24:27.688Z,-2.76
2023-02-08T06:26:55.356Z,-2.73
2023-02-08T06:29:23.025Z,-2.77
2023-02-08T06:31:50.760Z,-2.80
2023-02-08T06:34:18.408Z,-2.76
2023-02-08T06:36:46.367Z,-2.72
2023-02-08T06:39:13.922Z,-2.74
2023-02-08T06:41:42.781Z,-2.78
2023-02-08T06:44:10.501Z,-2.86
2023-02-08T06:46:38.121Z,-2.96
2023-02-08T06:49:05.859Z,-3.01
2023-02-08T06:51:33.382Z,-3.00
2023-02-08T06:54:01.012Z,-3.00
2023-02-08T06:56:28.502Z,-3.01
2023-02-08T06:58:58.492Z,-3.06
2023-02-08T07:01:26.116Z,-3.04
2023-02-08T07:03:53.758Z,-3.07
2023-02-08T07:06:21.523Z,-3.07
2023-02-08T07:08:49.068Z,-3.05
2023-02-08T07:11:19.772Z,-3.04
2023-02-08T07:13:48.676Z,-3.04
2023-02-08T07:16:18.275Z,-3.08
2023-02-08T07:18:46.041Z,-3.09
2023-02-08T07:21:13.717Z,-3.07
2023-02-08T07:23:41.575Z,-3.01
2023-02-08T07:26:11.980Z,-2.97
2023-02-08T07:28:40.196Z,-2.92
2023-02-08T07:31:08.778Z,-2.85
2023-02-08T07:33:38.230Z,-2.83
2023-02-08T07:36:07.545Z,-2.86
2023-02-08T07:38:35.701Z,-2.82
2023-02-08T07:41:04.571Z,-2.77
2023-02-08T07:43:32.327Z,-2.49
2023-02-08T07:45:59.937Z,-2.19
2023-02-08T07:48:27.476Z,-2.13
2023-02-08T07:50:56.322Z,-2.20
2023-02-08T07:53:23.836Z,-2.33
2023-02-08T07:55:51.401Z,-2.45
2023-02-08T07:58:18.914Z,-2.49
2023-02-08T08:00:46.463Z,-2.54
2023-02-08T08:03:14.022Z,-2.55
2023-02-08T08:05:42.246Z,-2.57
2023-02-08T08:08:12.041Z,-2.57
2023-02-08T08:10:40.537Z,-2.62
2023-02-08T08:13:08.375Z,-2.59
2023-02-08T08:15:36.261Z,-2.55
2023-02-08T08:18:03.826Z,-2.55
2023-02-08T08:20:31.452Z,-2.47
2023-02-08T08:22:59.117Z,-2.38
2023-02-08T08:25:28.282Z,-2.34
2023-02-08T08:27:56.134Z,-2.25
2023-02-08T08:30:23.961Z,-2.11
2023-02-08T08:32:51.550Z,-1.97
2023-02-08T08:35:19.098Z,-1.80
2023-02-08T08:37:46.615Z,-1.66
2023-02-08T08:40:14.251Z,-1.57
2023-02-08T08:42:43.144Z,-1.43
2023-02-08T08:45:11.731Z,-1.29
2023-02-08T08:47:39.268Z,-1.13
2023-02-08T08:50:08.031Z,-0.95
2023-02-08T08:52:35.816Z,-0.76
2023-02-08T08:55:03.419Z,-0.64
2023-02-08T08:57:32.481Z,-0.48
2023-02-08T09:00:01.633Z,-0.28
2023-02-08T09:02:29.160Z,-0.04
2023-02-08T09:04:59.882Z,0.22
2023-02-08T09:07:27.611Z,0.48
2023-02-08T09:09:55.168Z,0.67
2023-02-08T09:12:22.717Z,0.91
2023-02-08T09:14:50.282Z,1.07
2023-02-08T09:17:19.167Z,1.19
2023-02-08T09:19:47.354Z,1.31
2023-02-08T09:22:14.996Z,1.55
2023-02-08T09:24:42.654Z,1.62
2023-02-08T09:27:10.215Z,1.65
2023-02-08T09:29:37.754Z,1.78
2023-02-08T09:32:05.591Z,1.90
2023-02-08T09:34:34.494Z,1.85
2023-02-08T09:37:02.001Z,1.92
2023-02-08T09:39:29.636Z,2.11
2023-02-08T09:42:23.508Z,2.29
2023-02-08T09:45:07.870Z,2.56
2023-02-08T09:47:36.820Z,2.79
2023-02-08T09:50:14.447Z,2.91
2023-02-08T09:52:45.613Z,2.84
2023-02-08T09:55:24.994Z,2.81
2023-02-08T09:57:56.125Z,2.85
2023-02-08T10:00:35.415Z,2.85
2023-02-08T10:03:03.958Z,2.96
2023-02-08T10:05:33.650Z,3.17
2023-02-08T10:08:01.922Z,3.32
2023-02-08T10:10:42.779Z,3.38
2023-02-08T10:13:32.981Z,3.44
2023-02-08T10:16:17.994Z,3.52
2023-02-08T10:18:50.943Z,3.64
2023-02-08T10:21:32.386Z,3.72
2023-02-08T10:24:17.576Z,3.78
2023-02-08T10:26:47.528Z,3.87
2023-02-08T10:29:47.975Z,4.08
2023-02-08T10:32:45.808Z,4.15
2023-02-08T10:35:15.282Z,4.09
2023-02-08T10:37:46.368Z,4.13
2023-02-08T10:40:30.202Z,4.20
2023-02-08T10:43:06.763Z,4.40
2023-02-08T10:45:43.106Z,4.61
2023-02-08T10:48:16.602Z,4.81
2023-02-08T10:50:47.429Z,4.94
2023-02-08T10:53:20.350Z,5.12
2023-02-08T10:55:49.264Z,5.33
2023-02-08T10:58:18.968Z,5.52
2023-02-08T11:00:47.554Z,5.78
2023-02-08T11:03:18.450Z,6.02
2023-02-08T11:05:46.529Z,6.26
2023-02-08T11:08:19.706Z,6.54
2023-02-08T11:10:58.207Z,6.72
2023-02-08T11:13:34.185Z,6.87
2023-02-08T11:16:06.285Z,7.03
2023-02-08T11:18:36.984Z,7.05
2023-02-08T11:21:06.501Z,7.12
2023-02-08T11:23:39.038Z,7.16
2023-02-08T11:26:19.539Z,7.07
2023-02-08T11:29:01.232Z,7.08
2023-02-08T11:31:29.827Z,7.08
2023-02-08T11:34:02.930Z,7.16
2023-02-08T11:36:32.981Z,7.24
2023-02-08T11:39:04.791Z,7.25
2023-02-08T11:41:33.957Z,7.15
2023-02-08T11:44:05.616Z,7.16
2023-02-08T11:46:37.099Z,7.01
2023-02-08T11:49:05.381Z,7.00
2023-02-08T11:51:35.768Z,7.06
2023-02-08T11:54:06.745Z,7.08
2023-02-08T11:56:35.734Z,7.18
2023-02-08T11:59:12.369Z,7.45
2023-02-08T12:01:41.762Z,7.60
2023-02-08T12:04:11.770Z,7.55
2023-02-08T12:06:57.265Z,7.56
2023-02-08T12:10:00.505Z,7.78
2023-02-08T12:12:39.730Z,7.94
2023-02-08T12:15:17.894Z,8.12
2023-02-08T12:18:04.267Z,8.22
2023-02-08T12:20:38.514Z,8.33
2023-02-08T12:23:38.753Z,8.35
2023-02-08T12:26:18.350Z,8.63
2023-02-08T12:28:58.898Z,8.72
2023-02-08T12:31:41.300Z,8.64
2023-02-08T12:34:15.536Z,8.38
2023-02-08T12:37:24.503Z,8.07
2023-02-08T12:40:15.818Z,7.77
2023-02-08T12:42:56.086Z,7.25
2023-02-08T12:45:54.849Z,6.94
2023-02-08T12:48:33.720Z,6.68
2023-02-08T12:51:08.418Z,6.75
2023-02-08T12:53:42.090Z,6.87
2023-02-08T12:56:16.627Z,6.85
2023-02-08T12:58:47.669Z,6.68
2023-02-08T14:42:39.553Z,4.74
2023-02-08T14:45:28.869Z,4.74
2023-02-08T14:48:07.939Z,4.70
2023-02-08T14:50:53.589Z,4.66
2023-02-08T14:53:38.571Z,4.61
2023-02-08T14:56:15.852Z,4.50
2023-02-08T14:58:54.298Z,4.42
2023-02-08T15:01:43.958Z,4.41
2023-02-08T15:04:17.151Z,4.40
2023-02-08T15:07:06.739Z,4.39
2023-02-08T15:09:38.752Z,4.26
2023-02-08T15:12:11.936Z,4.15
2023-02-08T15:14:42.282Z,4.09
2023-02-08T15:17:22.035Z,4.03
2023-02-08T15:19:52.026Z,3.97
2023-02-08T15:22:33.109Z,3.90
2023-02-08T15:25:06.367Z,3.72
2023-02-08T15:27:36.210Z,3.58
2023-02-08T15:30:05.127Z,3.50
2023-02-08T15:32:35.327Z,3.47
2023-02-08T15:35:05.261Z,3.48
2023-02-08T15:37:35.682Z,3.37
2023-02-08T15:40:04.777Z,3.24
2023-02-08T15:42:36.141Z,3.10
2023-02-08T15:45:04.944Z,2.99
2023-02-08T15:47:38.356Z,2.83
2023-02-08T15:50:09.508Z,2.68
2023-02-08T15:52:38.620Z,2.55
2023-02-08T15:55:08.434Z,2.52
2023-02-08T15:57:45.239Z,2.52
2023-02-08T16:00:16.883Z,2.38
2023-02-08T16:02:53.955Z,2.30
2023-02-08T16:05:24.194Z,2.23
2023-02-08T16:07:53.158Z,2.16
2023-02-08T16:10:30.415Z,2.10
2023-02-08T16:13:00.678Z,1.97
2023-02-08T16:15:40.410Z,1.89
2023-02-08T16:18:33.788Z,1.86
2023-02-08T16:21:02.912Z,1.84
2023-02-08T16:23:33.107Z,1.81
2023-02-08T16:26:14.289Z,1.85
2023-02-08T16:28:41.907Z,1.81
2023-02-08T16:31:09.698Z,1.77
2023-02-08T16:33:39.658Z,1.68
2023-02-08T16:36:07.405Z,1.57
2023-02-08T16:38:35.684Z,1.49
2023-02-08T16:41:12.973Z,1.43
2023-02-08T16:43:43.863Z,1.36
2023-02-08T16:46:25.119Z,1.22
2023-02-08T16:48:55.875Z,1.12
2023-02-08T16:51:26.633Z,1.11
2023-02-08T16:53:57.329Z,1.10
2023-02-08T16:56:25.345Z,1.09
2023-02-08T16:58:53.194Z,0.99
2023-02-08T17:01:22.892Z,0.96
2023-02-08T17:03:52.920Z,0.94
2023-02-08T17:06:29.659Z,0.91
2023-02-08T17:08:57.317Z,0.88
2023-02-08T17:11:25.261Z,0.82
2023-02-08T17:13:54.024Z,0.77
2023-02-08T17:16:24.303Z,0.72
2023-02-08T17:18:52.084Z,0.67
2023-02-08T17:21:20.363Z,0.60
2023-02-08T17:23:49.914Z,0.49
2023-02-08T17:26:20.472Z,0.45
2023-02-08T17:28:48.151Z,0.40
2023-02-08T17:31:20.982Z,0.36
2023-02-08T17:33:50.226Z,0.38
2023-02-08T17:36:18.672Z,0.36
2023-02-08T17:38:50.610Z,0.37
2023-02-08T17:41:23.262Z,0.46
2023-02-08T17:44:00.659Z,0.53
2023-02-08T17:46:31.342Z,0.60
2023-02-08T17:49:06.006Z,0.64
2023-02-08T17:51:34.361Z,0.64
2023-02-08T17:54:05.785Z,0.66
2023-02-08T17:56:35.562Z,0.65
2023-02-08T17:59:05.372Z,0.65
2023-02-08T18:01:33.403Z,0.64
2023-02-08T18:04:01.568Z,0.66
2023-02-08T18:06:29.642Z,0.65
2023-02-08T18:08:57.408Z,0.64
2023-02-08T18:11:25.184Z,0.56
2023-02-08T18:13:55.138Z,0.50
2023-02-08T18:16:25.352Z,0.48
2023-02-08T18:18:55.513Z,0.49
2023-02-08T18:21:24.247Z,0.49
2023-02-08T18:23:52.741Z,0.49
2023-02-08T18:26:33.611Z,0.54
2023-02-08T18:29:03.373Z,0.61
2023-02-08T18:31:32.006Z,0.58
2023-02-08T18:33:59.681Z,0.54
2023-02-08T18:36:27.201Z,0.51
2023-02-08T18:38:55.757Z,0.48
2023-02-08T18:41:25.488Z,0.50
2023-02-08T18:43:54.968Z,0.54
2023-02-08T18:46:26.726Z,0.55
2023-02-08T18:48:55.531Z,0.57
2023-02-08T18:51:25.664Z,0.57
2023-02-08T18:53:56.122Z,0.51
2023-02-08T18:56:26.074Z,0.46
2023-02-08T18:58:54.889Z,0.37
2023-02-08T19:01:25.426Z,0.23
2023-02-08T19:03:53.367Z,0.21
2023-02-08T19:06:24.597Z,0.19
2023-02-08T19:08:53.698Z,0.18
2023-02-08T19:11:24.960Z,0.11
2023-02-08T19:13:56.756Z,0.13
2023-02-08T19:16:27.680Z,0.15
2023-02-08T19:18:57.210Z,0.13
2023-02-08T19:21:25.037Z,0.16
2023-02-08T19:23:54.074Z,0.21
2023-02-08T19:26:23.580Z,0.25
2023-02-08T19:28:51.305Z,0.30
2023-02-08T19:31:21.633Z,0.34
2023-02-08T19:33:56.957Z,0.27
2023-02-08T19:36:27.463Z,0.22
2023-02-08T19:38:55.887Z,0.21
2023-02-08T19:41:26.998Z,0.20
2023-02-08T19:43:54.640Z,0.24
2023-02-08T19:46:24.346Z,0.27
2023-02-08T19:48:54.962Z,0.27
2023-02-08T19:51:22.989Z,0.17
2023-02-08T19:53:50.513Z,0.12
2023-02-08T19:56:19.889Z,0.15
2023-02-08T19:58:49.446Z,0.18
2023-02-08T20:01:18.789Z,0.17
2023-02-08T20:03:47.197Z,0.12
2023-02-08T20:06:18.734Z,0.09
2023-02-08T20:08:46.408Z,0.09
2023-02-08T20:11:18.668Z,0.12
2023-02-08T20:13:46.308Z,0.11
2023-02-08T20:16:14.008Z,0.11
2023-02-08T20:18:41.761Z,0.09
2023-02-08T20:21:10.218Z,0.00
2023-02-08T20:23:39.233Z,-0.04
2023-02-08T20:26:09.729Z,-0.05
2023-02-08T20:28:38.733Z,-0.09
2023-02-08T20:31:10.274Z,-0.17
2023-02-08T20:33:38.337Z,-0.27
2023-02-08T20:36:10.708Z,-0.25
2023-02-08T20:38:40.424Z,-0.26
2023-02-08T20:41:11.943Z,-0.25
2023-02-08T20:43:41.140Z,-0.31
2023-02-08T20:46:10.816Z,-0.37
2023-02-08T20:48:38.557Z,-0.48
2023-02-08T20:51:09.368Z,-0.56
2023-02-08T20:53:40.063Z,-0.58
2023-02-08T20:56:08.393Z,-0.55
2023-02-08T20:58:36.010Z,-0.48
2023-02-08T21:01:03.720Z,-0.43
2023-02-08T21:03:31.314Z,-0.40
2023-02-08T21:05:58.894Z,-0.38
2023-02-08T21:08:26.481Z,-0.37
2023-02-08T21:10:55.427Z,-0.34
2023-02-08T21:13:23.011Z,-0.26
2023-02-08T21:15:50.556Z,-0.23
2023-02-08T21:18:18.102Z,-0.25
2023-02-08T21:20:45.951Z,-0.19
2023-02-08T21:23:13.698Z,-0.17
2023-02-08T21:25:44.396Z,-0.17
2023-02-08T21:28:13.406Z,-0.22
2023-02-08T21:30:41.483Z,-0.29
2023-02-08T21:33:09.124Z,-0.34
2023-02-08T21:35:37.464Z,-0.42
2023-02-08T21:38:06.029Z,-0.49
2023-02-08T21:40:33.698Z,-0.53
2023-02-08T21:43:01.214Z,-0.55
2023-02-08T21:45:30.059Z,-0.55
2023-02-08T21:47:57.606Z,-0.54
2023-02-08T21:50:43.420Z,-0.53
2023-02-08T21:53:30.215Z,-0.50
2023-02-08T21:55:58.123Z,-0.53
2023-02-08T21:58:25.747Z,-0.59
2023-02-08T22:00:54.693Z,-0.62
2023-02-08T22:03:22.241Z,-0.58
2023-02-08T22:05:49.753Z,-0.56
2023-02-08T22:08:17.280Z,-0.56
2023-02-08T22:10:53.345Z,-0.58
2023-02-08T22:13:25.289Z,-0.54
2023-02-08T22:15:54.216Z,-0.59
2023-02-08T22:18:21.769Z,-0.69
2023-02-08T22:20:52.024Z,-0.82
2023-02-08T22:23:19.629Z,-0.92
2023-02-08T22:25:47.243Z,-1.02
2023-02-08T22:28:14.854Z,-1.11
2023-02-08T22:30:42.609Z,-1.17
2023-02-08T22:33:11.542Z,-1.25
2023-02-08T22:35:39.732Z,-1.23
2023-02-08T22:38:07.308Z,-1.26
2023-02-08T22:40:34.938Z,-1.34
2023-02-08T22:43:02.783Z,-1.43
2023-02-08T22:45:30.306Z,-1.44
2023-02-08T22:47:57.808Z,-1.44
2023-02-08T22:50:26.618Z,-1.46
2023-02-08T22:52:54.153Z,-1.51
2023-02-08T22:55:21.697Z,-1.52
2023-02-08T22:57:49.237Z,-1.51
2023-02-08T23:00:18.628Z,-1.53
2023-02-08T23:02:46.253Z,-1.53
2023-02-08T23:05:14.502Z,-1.52
2023-02-08T23:07:43.333Z,-1.52
2023-02-08T23:10:11.911Z,-1.53
2023-02-08T23:12:39.464Z,-1.57
2023-02-08T23:15:07.476Z,-1.60
2023-02-08T23:17:36.624Z,-1.66
2023-02-08T23:20:04.197Z,-1.72
2023-02-08T23:22:31.728Z,-1.79
2023-02-08T23:25:00.664Z,-1.87
2023-02-08T23:27:28.210Z,-1.93
2023-02-08T23:29:55.877Z,-2.00
2023-02-08T23:32:23.451Z,-2.08
2023-02-08T23:34:51.130Z,-2.15
2023-02-08T23:37:18.689Z,-2.19
2023-02-08T23:39:46.192Z,-2.22
2023-02-08T23:42:25.365Z,-2.22
2023-02-08T23:44:53.100Z,-2.16
2023-02-08T23:47:20.848Z,-2.12
2023-02-08T23:49:48.417Z,-2.11
2023-02-08T23:52:16.284Z,-2.12
2023-02-08T23:54:44.187Z,-2.17
2023-02-08T23:57:12.126Z,-2.20
2023-02-08T23:59:41.788Z,-2.19
